createdAt,value
2022-11-02T00:00:13.974Z,9.64
2022-11-02T00:01:41.031Z,8.63
2022-11-02T00:03:02.778Z,9.27
2022-11-02T00:04:24.340Z,9.31
2022-11-02T00:05:45.453Z,10.34
2022-11-02T00:07:06.804Z,10.54
2022-11-02T00:08:28.131Z,8.01
2022-11-02T00:09:50.080Z,11.19
2022-11-02T00:11:11.688Z,9.85
2022-11-02T00:12:33.073Z,12.20
2022-11-02T00:13:54.402Z,9.43
2022-11-02T00:15:16.340Z,9.32
2022-11-02T00:16:38.580Z,9.35
2022-11-02T00:19:12.519Z,9.35
2022-11-02T00:20:35.702Z,8.75
2022-11-02T00:23:17.891Z,12.15
2022-11-02T00:24:39.433Z,10.12
2022-11-02T00:26:02.490Z,9.85
2022-11-02T00:27:23.856Z,9.64
2022-11-02T00:28:45.008Z,10.35
2022-11-02T00:30:08.088Z,11.63
2022-11-02T00:31:29.487Z,11.37
2022-11-02T00:32:50.958Z,9.32
2022-11-02T00:34:12.181Z,9.50
2022-11-02T00:35:34.255Z,9.48
2022-11-02T00:36:55.828Z,14.19
2022-11-02T00:38:17.128Z,11.17
2022-11-02T00:39:38.134Z,10.88
2022-11-02T00:40:59.422Z,10.05
2022-11-02T00:42:20.905Z,11.51
2022-11-02T00:43:42.385Z,11.64
2022-11-02T00:45:03.930Z,11.19
2022-11-02T00:46:25.244Z,12.24
2022-11-02T00:47:46.536Z,9.92
2022-11-02T00:49:07.977Z,12.57
2022-11-02T00:50:29.594Z,11.27
2022-11-02T00:51:50.924Z,11.12
2022-11-02T00:53:12.163Z,11.67
2022-11-02T00:54:33.081Z,10.92
2022-11-02T00:55:55.534Z,11.21
2022-11-02T00:57:16.579Z,8.72
2022-11-02T00:58:38.119Z,10.56
2022-11-02T00:59:59.393Z,9.84
2022-11-02T01:01:20.439Z,12.07
2022-11-02T01:02:41.834Z,11.78
2022-11-02T01:04:03.450Z,11.16
2022-11-02T01:05:26.019Z,12.66
2022-11-02T01:06:47.707Z,10.38
2022-11-02T01:08:08.992Z,11.54
2022-11-02T01:09:30.323Z,11.77
2022-11-02T01:10:54.432Z,11.50
2022-11-02T01:12:15.714Z,11.78
2022-11-02T01:13:36.698Z,11.67
2022-11-02T01:14:57.851Z,12.80
2022-11-02T01:16:19.385Z,12.40
2022-11-02T01:17:40.616Z,13.73
2022-11-02T01:19:02.207Z,11.68
2022-11-02T01:20:23.641Z,10.72
2022-11-02T01:21:45.372Z,11.01
2022-11-02T01:23:06.994Z,10.77
2022-11-02T01:24:28.811Z,9.75
2022-11-02T01:25:51.597Z,12.17
2022-11-02T01:27:12.834Z,12.87
2022-11-02T01:28:34.654Z,11.11
2022-11-02T01:29:55.806Z,10.66
2022-11-02T01:31:16.904Z,13.76
2022-11-02T01:32:37.967Z,12.81
2022-11-02T01:33:59.757Z,13.24
2022-11-02T01:35:21.159Z,14.12
2022-11-02T01:36:44.008Z,10.46
2022-11-02T01:39:26.863Z,12.26
2022-11-02T01:40:50.036Z,13.11
2022-11-02T01:43:32.441Z,11.69
2022-11-02T01:44:54.007Z,13.69
2022-11-02T01:46:21.897Z,13.95
2022-11-02T01:47:45.542Z,13.59
2022-11-02T01:49:09.684Z,16.44
2022-11-02T01:50:30.806Z,12.73
2022-11-02T01:52:06.513Z,14.58
2022-11-02T01:53:28.729Z,13.76
2022-11-02T01:56:02.870Z,13.45
2022-11-02T01:57:24.574Z,13.84
2022-11-02T01:58:48.017Z,11.75
2022-11-02T02:01:22.783Z,15.85
2022-11-02T02:04:00.167Z,8.83
2022-11-02T02:05:22.478Z,12.57
2022-11-02T02:06:43.652Z,13.11
2022-11-02T02:08:05.320Z,12.74
2022-11-02T02:09:27.000Z,12.59
2022-11-02T02:10:49.345Z,12.42
2022-11-02T02:12:11.560Z,13.24
2022-11-02T02:13:32.605Z,13.47
2022-11-02T02:14:53.979Z,12.81
2022-11-02T02:16:19.748Z,12.38
2022-11-02T02:17:50.680Z,11.03
2022-11-02T02:19:41.573Z,11.88
2022-11-02T02:21:12.761Z,11.89
2022-11-02T02:23:13.997Z,14.95
2022-11-02T02:24:54.257Z,13.01
2022-11-02T02:28:29.148Z,14.22
2022-11-02T02:30:06.415Z,10.86
2022-11-02T02:33:32.170Z,12.91
2022-11-02T02:34:56.490Z,11.87
2022-11-02T02:36:25.615Z,13.18
2022-11-02T02:37:57.899Z,12.30
2022-11-02T02:39:37.684Z,14.47
2022-11-02T02:41:08.507Z,12.49
2022-11-02T02:42:36.083Z,13.76
2022-11-02T02:43:57.426Z,11.61
2022-11-02T02:45:21.859Z,11.43
2022-11-02T02:46:46.655Z,12.72
2022-11-02T02:48:16.033Z,11.69
2022-11-02T02:49:43.338Z,11.44
2022-11-02T02:51:07.154Z,15.81
2022-11-02T02:52:28.924Z,12.92
2022-11-02T02:53:53.539Z,13.18
2022-11-02T02:55:22.725Z,13.96
2022-11-02T02:56:50.061Z,12.62
2022-11-02T02:58:19.377Z,13.61
2022-11-02T02:59:42.002Z,15.12
2022-11-02T03:01:03.280Z,12.23
2022-11-02T03:02:27.285Z,12.30
2022-11-02T03:03:48.759Z,14.11
2022-11-02T03:05:26.598Z,12.65
2022-11-02T03:06:49.960Z,14.58
2022-11-02T03:08:12.733Z,12.46
2022-11-02T03:09:40.832Z,12.21
2022-11-02T03:11:11.757Z,14.69
2022-11-02T03:12:36.944Z,12.86
2022-11-02T03:14:16.381Z,13.24
2022-11-02T03:17:03.419Z,13.38
2022-11-02T03:18:37.085Z,14.13
2022-11-02T03:20:17.291Z,13.62
2022-11-02T03:21:43.523Z,11.51
2022-11-02T03:23:26.215Z,11.09
2022-11-02T03:25:08.595Z,9.51
2022-11-02T03:26:49.801Z,13.13
2022-11-02T03:28:35.404Z,12.51
2022-11-02T03:30:14.219Z,14.61
2022-11-02T03:31:41.165Z,15.31
2022-11-02T03:33:05.735Z,12.93
2022-11-02T03:34:36.350Z,10.93
2022-11-02T03:36:08.181Z,11.01
2022-11-02T03:37:33.687Z,12.56
2022-11-02T03:39:04.471Z,12.77
2022-11-02T03:40:30.980Z,13.83
2022-11-02T03:41:53.316Z,12.64
2022-11-02T03:43:14.379Z,11.08
2022-11-02T03:44:37.526Z,13.06
2022-11-02T03:46:00.300Z,11.98
2022-11-02T03:47:21.600Z,13.04
2022-11-02T03:48:45.542Z,12.41
2022-11-02T03:50:07.788Z,13.63
2022-11-02T03:51:29.427Z,8.79
2022-11-02T03:53:03.148Z,11.07
2022-11-02T03:54:48.669Z,12.22
2022-11-02T03:56:13.911Z,11.26
2022-11-02T03:57:38.917Z,12.78
2022-11-02T03:59:00.024Z,14.42
2022-11-02T04:00:22.516Z,11.46
2022-11-02T04:01:45.081Z,11.34
2022-11-02T04:04:27.691Z,12.60
2022-11-02T04:05:49.009Z,11.46
2022-11-02T04:07:10.048Z,11.17
2022-11-02T04:08:36.089Z,13.33
2022-11-02T04:09:57.312Z,10.75
2022-11-02T04:11:18.985Z,12.55
2022-11-02T04:12:39.932Z,13.16
2022-11-02T04:14:01.384Z,13.15
2022-11-02T04:15:22.395Z,12.12
2022-11-02T04:16:43.921Z,14.45
2022-11-02T04:18:05.338Z,14.70
2022-11-02T04:19:26.999Z,16.80
2022-11-02T04:20:54.745Z,12.42
2022-11-02T04:22:16.276Z,13.63
2022-11-02T04:23:37.279Z,13.64
2022-11-02T04:24:58.819Z,12.17
2022-11-02T04:26:20.268Z,14.79
2022-11-02T04:27:41.817Z,12.72
2022-11-02T04:29:03.183Z,14.29
2022-11-02T04:30:24.406Z,14.19
2022-11-02T04:31:45.577Z,15.82
2022-11-02T04:33:06.488Z,14.53
2022-11-02T04:34:27.523Z,15.79
2022-11-02T04:35:49.044Z,11.26
2022-11-02T04:37:10.347Z,13.57
2022-11-02T04:38:31.692Z,15.49
2022-11-02T04:39:53.188Z,15.08
2022-11-02T04:41:17.540Z,13.03
2022-11-02T04:42:38.638Z,14.69
2022-11-02T04:44:00.210Z,12.18
2022-11-02T04:45:21.680Z,16.08
2022-11-02T04:46:43.318Z,13.90
2022-11-02T04:48:06.855Z,14.04
2022-11-02T04:49:30.798Z,15.44
2022-11-02T04:50:52.055Z,14.04
2022-11-02T04:52:13.881Z,15.32
2022-11-02T04:53:35.152Z,14.53
2022-11-02T04:54:56.204Z,15.83
2022-11-02T04:56:17.815Z,15.91
2022-11-02T04:57:43.099Z,15.23
2022-11-02T04:59:04.212Z,16.83
2022-11-02T05:00:25.818Z,16.51
2022-11-02T05:01:47.430Z,16.12
2022-11-02T05:03:11.498Z,14.07
2022-11-02T05:05:55.594Z,17.29
2022-11-02T05:07:16.836Z,18.27
2022-11-02T05:08:38.340Z,17.25
2022-11-02T05:09:59.378Z,19.58
2022-11-02T05:11:21.949Z,17.53
2022-11-02T05:12:43.276Z,16.84
2022-11-02T05:14:04.680Z,20.17
2022-11-02T05:15:27.732Z,19.15
2022-11-02T05:16:49.561Z,17.44
2022-11-02T05:18:14.810Z,19.15
2022-11-02T05:19:33.788Z,21.68
2022-11-02T05:20:58.488Z,18.39
2022-11-02T05:22:19.603Z,17.72
2022-11-02T05:23:41.358Z,18.24
2022-11-02T05:25:03.948Z,19.98
2022-11-02T05:26:25.364Z,17.37
2022-11-02T05:27:46.726Z,18.73
2022-11-02T05:29:09.102Z,16.68
2022-11-02T05:30:30.768Z,21.03
2022-11-02T05:31:52.673Z,21.29
2022-11-02T05:33:13.757Z,19.28
2022-11-02T05:34:35.201Z,18.30
2022-11-02T05:35:57.655Z,18.12
2022-11-02T05:37:18.873Z,19.32
2022-11-02T05:40:02.865Z,19.78
2022-11-02T05:41:25.753Z,20.66
2022-11-02T05:42:48.192Z,19.35
2022-11-02T05:44:09.435Z,20.18
2022-11-02T05:45:30.833Z,21.50
2022-11-02T05:46:53.084Z,20.51
2022-11-02T05:48:14.226Z,20.44
2022-11-02T05:49:35.887Z,20.97
2022-11-02T05:51:04.595Z,20.83
2022-11-02T05:52:25.733Z,20.79
2022-11-02T05:53:48.890Z,22.94
2022-11-02T05:56:37.932Z,20.01
2022-11-02T05:58:01.097Z,23.45
2022-11-02T05:59:22.668Z,21.11
2022-11-02T06:00:44.152Z,20.89
2022-11-02T06:02:11.902Z,22.01
2022-11-02T06:03:40.567Z,19.81
2022-11-02T06:05:09.164Z,22.11
2022-11-02T06:06:32.618Z,23.91
2022-11-02T06:09:23.052Z,21.11
2022-11-02T06:10:44.759Z,20.29
2022-11-02T06:12:06.571Z,20.39
2022-11-02T06:13:35.794Z,22.58
2022-11-02T06:14:57.125Z,23.60
2022-11-02T06:16:22.942Z,22.13
2022-11-02T06:17:48.644Z,21.28
2022-11-02T06:19:23.141Z,21.99
2022-11-02T06:20:52.239Z,19.24
2022-11-02T06:22:13.266Z,23.59
2022-11-02T06:23:36.066Z,36.11
2022-11-02T06:25:04.557Z,24.88
2022-11-02T06:26:27.164Z,22.33
2022-11-02T06:27:51.942Z,23.54
2022-11-02T06:29:13.248Z,21.59
2022-11-02T06:30:34.933Z,20.23
2022-11-02T06:31:56.275Z,19.68
2022-11-02T06:33:17.727Z,21.93
2022-11-02T06:34:39.249Z,23.96
2022-11-02T06:36:00.960Z,22.63
2022-11-02T06:37:22.447Z,20.41
2022-11-02T06:38:43.889Z,21.44
2022-11-02T06:40:06.558Z,21.54
2022-11-02T06:41:28.576Z,22.19
2022-11-02T06:44:08.961Z,20.91
2022-11-02T06:45:30.174Z,21.09
2022-11-02T06:46:51.595Z,22.34
2022-11-02T06:48:12.977Z,21.83
2022-11-02T06:49:34.791Z,24.02
2022-11-02T06:50:59.115Z,22.08
2022-11-02T06:52:20.664Z,22.03
2022-11-02T06:53:42.699Z,25.09
2022-11-02T06:55:06.091Z,22.05
2022-11-02T06:56:27.422Z,21.78
2022-11-02T06:57:51.650Z,21.86
2022-11-02T06:59:12.909Z,26.44
2022-11-02T07:01:49.228Z,25.13
2022-11-02T07:03:11.294Z,22.29
2022-11-02T07:04:33.928Z,21.33
2022-11-02T07:05:55.367Z,21.80
2022-11-02T07:07:16.512Z,21.78
2022-11-02T07:08:37.983Z,23.57
2022-11-02T07:09:59.511Z,22.84
2022-11-02T07:11:20.827Z,21.39
2022-11-02T07:12:42.270Z,23.65
2022-11-02T07:14:03.461Z,23.97
2022-11-02T07:15:25.417Z,21.11
2022-11-02T07:16:47.193Z,22.30
2022-11-02T07:18:09.673Z,23.58
2022-11-02T07:19:31.174Z,20.52
2022-11-02T07:20:52.965Z,22.56
2022-11-02T07:22:14.102Z,22.28
2022-11-02T07:23:38.186Z,21.42
2022-11-02T07:24:59.534Z,21.75
2022-11-02T07:26:21.110Z,25.51
2022-11-02T07:27:44.033Z,24.50
2022-11-02T07:31:46.383Z,17.28
2022-11-02T07:33:08.386Z,23.63
2022-11-02T07:34:29.896Z,23.14
2022-11-02T07:35:51.450Z,23.99
2022-11-02T07:37:12.717Z,22.11
2022-11-02T07:38:34.143Z,20.92
2022-11-02T07:39:55.763Z,24.02
2022-11-02T07:41:16.908Z,22.98
2022-11-02T07:42:44.935Z,23.74
2022-11-02T07:44:07.539Z,21.97
2022-11-02T07:45:29.841Z,23.43
2022-11-02T07:48:12.324Z,22.15
2022-11-02T07:49:33.628Z,21.87
2022-11-02T07:50:58.178Z,22.29
2022-11-02T07:52:19.471Z,21.76
2022-11-02T07:54:53.808Z,21.10
2022-11-02T07:56:20.935Z,20.35
2022-11-02T07:57:42.246Z,21.52
2022-11-02T07:59:06.315Z,22.55
2022-11-02T08:00:32.309Z,21.57
2022-11-02T08:01:55.117Z,20.80
2022-11-02T08:03:17.707Z,18.74
2022-11-02T08:04:42.302Z,18.26
2022-11-02T08:06:02.722Z,19.40
2022-11-02T08:07:25.201Z,21.22
2022-11-02T08:08:46.203Z,21.18
2022-11-02T08:10:08.094Z,19.63
2022-11-02T08:11:29.420Z,17.78
2022-11-02T08:12:51.235Z,17.23
2022-11-02T08:14:12.636Z,17.00
2022-11-02T08:15:35.040Z,20.09
2022-11-02T08:16:56.816Z,20.44
2022-11-02T08:18:22.651Z,14.74
2022-11-02T08:19:43.862Z,19.77
2022-11-02T08:21:06.145Z,15.96
2022-11-02T08:22:27.765Z,19.43
2022-11-02T08:23:51.014Z,16.67
2022-11-02T08:25:12.565Z,19.63
2022-11-02T08:26:34.459Z,15.61
2022-11-02T08:27:57.226Z,17.06
2022-11-02T08:29:18.856Z,17.11
2022-11-02T08:30:40.204Z,14.32
2022-11-02T08:32:01.644Z,14.92
2022-11-02T08:33:23.015Z,15.30
2022-11-02T08:34:45.161Z,17.41
2022-11-02T08:36:24.436Z,18.49
2022-11-02T08:37:55.679Z,15.81
2022-11-02T08:41:01.122Z,14.36
2022-11-02T08:42:26.841Z,15.26
2022-11-02T08:43:54.765Z,15.12
2022-11-02T08:45:15.963Z,16.25
2022-11-02T08:46:45.830Z,12.42
2022-11-02T08:48:08.688Z,15.02
2022-11-02T08:50:45.762Z,13.51
2022-11-02T09:07:17.195Z,14.91
2022-11-02T09:08:40.022Z,12.72
2022-11-02T09:10:04.757Z,15.16
2022-11-02T09:11:26.162Z,16.08
2022-11-02T09:12:49.403Z,11.58
2022-11-02T09:14:37.051Z,12.71
2022-11-02T09:16:00.173Z,14.65
2022-11-02T09:17:21.834Z,16.38
2022-11-02T09:18:45.386Z,15.28
2022-11-02T09:20:10.234Z,16.64
2022-11-02T09:21:32.909Z,13.18
2022-11-02T09:26:53.002Z,16.07
2022-11-02T09:28:16.215Z,14.05
2022-11-02T09:29:37.857Z,14.22
2022-11-02T09:31:03.862Z,13.77
2022-11-02T09:32:32.014Z,16.15
2022-11-02T09:33:53.803Z,12.84
2022-11-02T09:35:16.109Z,13.77
2022-11-02T09:36:39.517Z,14.41
2022-11-02T09:38:06.658Z,14.31
2022-11-02T09:39:31.584Z,13.76
2022-11-02T09:41:05.215Z,12.31
2022-11-02T09:42:53.923Z,15.02
2022-11-02T09:56:58.392Z,13.73
2022-11-02T10:13:52.541Z,17.34
2022-11-02T10:15:35.582Z,18.68
2022-11-02T10:21:08.472Z,18.63
2022-11-02T10:22:42.609Z,19.05
2022-11-02T10:27:29.829Z,14.98
2022-11-02T10:30:20.220Z,18.55
2022-11-02T10:31:42.003Z,21.43
2022-11-02T10:33:04.320Z,18.06
2022-11-02T10:37:44.652Z,18.44
2022-11-02T10:39:31.231Z,18.03
2022-11-02T10:41:14.708Z,16.93
2022-11-02T10:44:20.933Z,18.90
2022-11-02T10:47:18.023Z,20.26
2022-11-02T10:49:01.330Z,17.89
2022-11-02T10:50:50.372Z,18.49
2022-11-02T10:52:15.662Z,18.11
2022-11-02T10:53:42.665Z,19.42
2022-11-02T10:55:04.882Z,16.84
2022-11-02T10:57:47.194Z,20.41
2022-11-02T10:59:13.442Z,21.02
2022-11-02T11:00:36.344Z,18.71
2022-11-02T11:20:27.939Z,20.46
2022-11-02T11:21:51.277Z,22.18
2022-11-02T11:23:23.690Z,23.36
2022-11-02T11:24:46.392Z,21.77
2022-11-02T11:26:14.554Z,21.83
2022-11-02T11:27:51.583Z,19.53
2022-11-02T11:29:22.014Z,20.16
2022-11-02T11:30:59.647Z,20.66
2022-11-02T11:32:15.816Z,19.72
2022-11-02T11:33:56.683Z,20.06
2022-11-02T11:35:18.673Z,20.60
2022-11-02T11:36:41.313Z,18.85
2022-11-02T11:38:05.062Z,20.92
2022-11-02T11:39:27.714Z,20.59
2022-11-02T11:42:23.244Z,23.00
2022-11-02T11:43:44.459Z,21.21
2022-11-02T11:45:25.386Z,21.78
2022-11-02T11:46:52.307Z,19.89
2022-11-02T11:48:20.128Z,20.58
2022-11-02T11:51:30.664Z,22.00
2022-11-02T12:10:22.181Z,20.80
2022-11-02T20:08:30.903Z,16.27
2022-11-02T20:09:53.473Z,16.00
2022-11-02T20:12:37.973Z,16.21
2022-11-02T20:14:00.153Z,15.35
2022-11-02T20:15:21.142Z,16.96
2022-11-02T20:16:42.589Z,17.26
2022-11-02T20:18:19.147Z,16.24
2022-11-02T20:19:27.556Z,15.70
2022-11-02T20:20:48.816Z,14.25
2022-11-02T20:22:10.186Z,14.00
2022-11-02T20:23:31.759Z,14.47
2022-11-02T20:24:53.203Z,13.63
2022-11-02T20:26:24.857Z,17.17
2022-11-02T20:27:46.006Z,14.65
2022-11-02T20:29:10.765Z,13.60
2022-11-02T20:30:31.034Z,13.60
2022-11-02T20:31:52.327Z,12.71
2022-11-02T20:33:13.461Z,17.02
2022-11-02T20:34:35.995Z,15.41
2022-11-02T20:35:57.094Z,13.63
2022-11-02T20:37:18.722Z,13.61
2022-11-02T20:38:40.767Z,16.90
2022-11-02T20:40:02.267Z,15.46
2022-11-02T20:41:24.008Z,16.53
2022-11-02T20:42:47.796Z,15.63
2022-11-02T20:44:09.780Z,14.96
2022-11-02T20:45:30.912Z,15.39
2022-11-02T20:46:53.519Z,16.56
2022-11-02T20:49:49.916Z,16.24
2022-11-02T20:50:59.328Z,15.54
2022-11-02T20:52:20.712Z,17.35
2022-11-02T20:53:41.761Z,14.22
2022-11-02T20:55:04.859Z,14.11
2022-11-02T20:57:48.179Z,14.26
2022-11-02T20:59:09.535Z,18.94
2022-11-02T21:00:31.337Z,16.19
2022-11-02T21:01:54.995Z,15.22
2022-11-02T21:03:16.970Z,15.26
2022-11-02T21:04:38.249Z,14.43
2022-11-02T21:06:06.152Z,14.88
2022-11-02T21:07:27.405Z,15.62
2022-11-02T21:08:48.527Z,14.28
2022-11-02T21:10:10.107Z,16.31
2022-11-02T21:11:31.438Z,16.48
2022-11-02T21:12:52.407Z,16.06
2022-11-02T21:14:13.520Z,13.57
2022-11-02T21:15:35.007Z,14.38
2022-11-02T21:16:56.254Z,13.62
2022-11-02T21:18:17.719Z,13.97
2022-11-02T21:19:39.256Z,15.85
2022-11-02T21:21:11.274Z,14.72
2022-11-02T21:22:32.495Z,16.63
2022-11-02T21:23:54.545Z,14.03
2022-11-02T21:25:16.089Z,13.25
2022-11-02T21:26:37.495Z,14.56
2022-11-02T21:27:59.045Z,16.38
2022-11-02T21:29:20.053Z,14.19
2022-11-02T21:30:41.077Z,16.03
2022-11-02T21:32:02.248Z,14.57
2022-11-02T21:33:25.313Z,14.07
2022-11-02T21:34:46.235Z,15.36
2022-11-02T21:36:08.371Z,14.21
2022-11-02T21:37:29.817Z,14.61
2022-11-02T21:38:51.170Z,14.73
2022-11-02T21:40:13.491Z,16.58
2022-11-02T21:41:34.482Z,14.62
2022-11-02T21:42:55.432Z,15.26
2022-11-02T21:44:17.002Z,17.59
2022-11-02T21:45:38.354Z,14.38
2022-11-02T21:46:59.558Z,15.05
2022-11-02T21:48:21.138Z,17.88
2022-11-02T21:49:42.487Z,15.47
2022-11-02T21:51:06.686Z,18.19
2022-11-02T21:52:27.885Z,17.86
2022-11-02T21:53:50.107Z,15.12
2022-11-02T21:55:11.506Z,14.73
2022-11-02T21:56:32.884Z,15.64
2022-11-02T21:57:54.108Z,16.29
2022-11-02T21:59:15.428Z,15.69
2022-11-02T22:00:36.414Z,16.55
2022-11-02T22:01:57.982Z,15.59
2022-11-02T22:03:19.162Z,15.39
2022-11-02T22:04:40.632Z,14.99
2022-11-02T22:06:02.098Z,16.29
2022-11-02T22:07:23.662Z,15.44
2022-11-02T22:08:44.976Z,17.14
2022-11-02T22:10:20.726Z,16.39
2022-11-02T22:11:48.833Z,15.50
2022-11-02T22:13:17.021Z,16.76
2022-11-02T22:14:38.504Z,15.01
2022-11-02T22:17:59.833Z,11.31
2022-11-02T22:19:33.941Z,15.34
2022-11-02T22:21:02.561Z,16.81
2022-11-02T22:22:37.015Z,17.17
2022-11-02T22:24:06.115Z,15.11
2022-11-02T22:25:40.252Z,15.66
2022-11-02T22:27:08.730Z,15.14
2022-11-02T22:28:45.402Z,14.99
2022-11-02T22:30:13.668Z,16.51
2022-11-02T22:31:48.432Z,15.34
2022-11-02T22:33:17.568Z,13.71
2022-11-02T22:34:51.258Z,15.41
2022-11-02T22:36:21.385Z,14.30
2022-11-02T22:37:56.194Z,16.41
2022-11-02T22:39:23.353Z,16.01
2022-11-02T22:42:26.116Z,13.39
2022-11-02T22:44:04.598Z,13.61
2022-11-02T22:45:32.095Z,15.55
2022-11-02T22:47:06.679Z,16.73
2022-11-02T22:48:33.882Z,14.84
2022-11-02T22:50:07.759Z,15.56
2022-11-02T22:51:30.359Z,13.73
2022-11-02T22:52:52.631Z,14.72
2022-11-02T22:54:15.227Z,15.63
2022-11-02T22:55:36.554Z,14.12
2022-11-02T22:56:57.911Z,14.19
2022-11-02T22:58:19.213Z,14.57
2022-11-02T22:59:40.280Z,15.94
2022-11-02T23:01:01.349Z,15.22
2022-11-02T23:02:22.856Z,15.27
2022-11-02T23:05:07.130Z,14.73
2022-11-02T23:07:46.485Z,17.31
2022-11-02T23:09:09.989Z,16.37
2022-11-02T23:10:31.521Z,15.06
2022-11-02T23:11:52.948Z,14.73
2022-11-02T23:13:14.386Z,15.04
2022-11-02T23:14:35.407Z,16.59
2022-11-02T23:16:06.227Z,14.39
2022-11-02T23:17:27.352Z,13.68
2022-11-02T23:19:00.337Z,14.41
2022-11-02T23:20:21.701Z,15.75
2022-11-02T23:23:15.856Z,15.20
2022-11-02T23:26:10.737Z,12.88
2022-11-02T23:27:33.551Z,13.99
2022-11-02T23:28:54.712Z,14.03
2022-11-02T23:30:16.105Z,15.57
2022-11-02T23:31:37.125Z,14.42
2022-11-02T23:32:58.607Z,14.07
2022-11-02T23:34:20.000Z,13.91
2022-11-02T23:35:40.991Z,15.73
2022-11-02T23:37:06.922Z,14.49
2022-11-02T23:38:28.200Z,13.44
2022-11-02T23:39:49.728Z,15.11
2022-11-02T23:41:10.641Z,18.98
2022-11-02T23:42:31.885Z,14.49
2022-11-02T23:43:53.133Z,17.19
2022-11-02T23:45:14.901Z,16.43
2022-11-02T23:46:37.584Z,14.87
2022-11-02T23:47:58.628Z,16.40
2022-11-02T23:49:19.951Z,15.03
2022-11-02T23:50:41.297Z,14.44
2022-11-02T23:52:02.617Z,13.82
2022-11-02T23:53:23.819Z,16.08
2022-11-02T23:54:44.803Z,18.54
2022-11-02T23:57:17.748Z,15.53
2022-11-02T23:58:39.311Z,16.40
